createdAt,value
2017-08-22T00:00:18.181Z,24.80
2017-08-22T00:02:46.308Z,24.80
2017-08-22T00:05:14.540Z,24.80
2017-08-22T00:07:42.705Z,24.80
2017-08-22T00:10:10.828Z,24.80
2017-08-22T00:12:38.960Z,24.80
2017-08-22T00:15:07.099Z,24.70
2017-08-22T00:17:35.247Z,24.70
2017-08-22T00:20:03.392Z,24.70
2017-08-22T00:22:31.528Z,24.70
2017-08-22T00:24:59.664Z,24.70
2017-08-22T00:27:27.788Z,24.70
2017-08-22T00:29:55.912Z,24.70
2017-08-22T00:32:24.838Z,24.70
2017-08-22T00:34:52.964Z,24.60
2017-08-22T00:37:21.105Z,24.70
2017-08-22T00:39:49.328Z,24.60
2017-08-22T00:43:41.680Z,24.60
2017-08-22T00:46:09.976Z,24.60
2017-08-22T00:48:38.108Z,24.50
2017-08-22T00:51:06.240Z,24.40
2017-08-22T00:53:34.636Z,24.40
2017-08-22T00:56:02.794Z,24.40
2017-08-22T00:58:30.925Z,24.50
2017-08-22T01:00:59.065Z,24.50
2017-08-22T01:03:27.192Z,24.50
2017-08-22T01:05:55.808Z,24.50
2017-08-22T01:08:23.945Z,24.60
2017-08-22T01:10:52.077Z,24.60
2017-08-22T01:13:20.264Z,24.60
2017-08-22T01:15:48.414Z,24.60
2017-08-22T01:18:16.580Z,24.60
2017-08-22T01:20:44.748Z,24.60
2017-08-22T01:23:12.942Z,24.50
2017-08-22T01:25:41.080Z,24.50
2017-08-22T01:28:09.216Z,24.50
2017-08-22T01:30:37.357Z,24.50
2017-08-22T01:33:05.549Z,24.40
2017-08-22T01:35:33.669Z,24.40
2017-08-22T01:38:01.812Z,24.40
2017-08-22T01:40:29.932Z,24.40
2017-08-22T01:42:58.172Z,24.40
2017-08-22T01:45:26.306Z,24.40
2017-08-22T01:47:54.429Z,24.30
2017-08-22T01:50:22.560Z,24.40
2017-08-22T01:52:50.684Z,24.30
2017-08-22T01:55:18.827Z,24.30
2017-08-22T01:57:46.966Z,24.30
2017-08-22T02:00:15.103Z,24.30
2017-08-22T02:02:43.245Z,24.30
2017-08-22T02:05:12.155Z,24.30
2017-08-22T02:07:40.256Z,24.30
2017-08-22T02:10:08.384Z,24.30
2017-08-22T02:12:36.504Z,24.30
2017-08-22T02:15:04.620Z,24.30
2017-08-22T02:17:32.766Z,24.20
2017-08-22T02:20:00.912Z,24.20
2017-08-22T02:22:29.063Z,24.20
2017-08-22T02:24:57.196Z,24.20
2017-08-22T02:27:25.358Z,24.20
2017-08-22T02:29:54.176Z,24.20
2017-08-22T02:32:22.322Z,24.20
2017-08-22T02:34:50.464Z,24.20
2017-08-22T02:37:18.608Z,24.20
2017-08-22T02:39:46.730Z,24.20
2017-08-22T02:42:14.901Z,24.20
2017-08-22T02:44:43.036Z,24.20
2017-08-22T02:47:11.236Z,24.10
2017-08-22T02:49:39.376Z,24.10
2017-08-22T02:52:07.526Z,24.10
2017-08-22T02:54:35.658Z,24.10
2017-08-22T02:57:03.887Z,24.10
2017-08-22T02:59:32.015Z,24.10
2017-08-22T03:02:00.148Z,24.00
2017-08-22T03:04:28.832Z,24.00
2017-08-22T03:06:56.969Z,24.00
2017-08-22T03:09:25.101Z,24.00
2017-08-22T03:11:53.256Z,24.00
2017-08-22T03:14:21.389Z,24.00
2017-08-22T03:16:49.517Z,24.00
2017-08-22T03:19:17.655Z,24.00
2017-08-22T03:21:45.784Z,23.90
2017-08-22T03:24:14.687Z,23.90
2017-08-22T03:26:42.824Z,23.90
2017-08-22T03:29:11.028Z,23.90
2017-08-22T03:31:39.168Z,23.90
2017-08-22T03:34:07.332Z,23.90
2017-08-22T03:36:35.444Z,23.90
2017-08-22T03:41:41.587Z,23.90
2017-08-22T03:44:09.860Z,23.90
2017-08-22T03:46:37.982Z,23.90
2017-08-22T03:49:06.132Z,23.90
2017-08-22T03:51:34.332Z,23.90
2017-08-22T03:54:03.173Z,23.90
2017-08-22T03:56:31.300Z,23.90
2017-08-22T03:58:59.488Z,23.90
2017-08-22T04:01:27.608Z,23.90
2017-08-22T04:03:55.752Z,23.90
2017-08-22T04:06:24.455Z,23.90
2017-08-22T04:08:52.612Z,23.80
2017-08-22T04:11:20.750Z,23.80
2017-08-22T04:13:48.905Z,23.80
2017-08-22T04:16:17.040Z,23.80
2017-08-22T04:18:45.180Z,23.80
2017-08-22T04:21:13.317Z,23.80
2017-08-22T04:23:41.468Z,23.70
2017-08-22T04:26:09.592Z,23.70
2017-08-22T04:28:37.737Z,23.70
2017-08-22T04:31:05.877Z,23.70
2017-08-22T04:33:34.002Z,23.70
2017-08-22T04:36:02.131Z,23.70
2017-08-22T04:38:30.260Z,23.70
2017-08-22T04:40:58.428Z,23.70
2017-08-22T04:43:26.564Z,23.70
2017-08-22T04:45:54.699Z,23.70
2017-08-22T04:48:22.836Z,23.70
2017-08-22T04:50:51.068Z,23.70
2017-08-22T04:53:19.204Z,23.70
2017-08-22T04:55:47.407Z,23.70
2017-08-22T04:58:16.267Z,23.70
2017-08-22T05:00:44.423Z,23.70
2017-08-22T05:03:12.552Z,23.70
2017-08-22T05:05:41.321Z,23.80
2017-08-22T05:08:09.562Z,23.70
2017-08-22T05:10:37.859Z,23.80
2017-08-22T05:13:05.982Z,23.80
2017-08-22T05:15:34.126Z,23.80
2017-08-22T05:18:02.268Z,23.80
2017-08-22T05:20:30.493Z,23.80
2017-08-22T05:22:58.630Z,23.80
2017-08-22T05:25:26.740Z,23.80
2017-08-22T05:27:54.983Z,23.80
2017-08-22T05:30:23.128Z,23.70
2017-08-22T05:32:51.263Z,23.80
2017-08-22T05:35:20.076Z,23.70
2017-08-22T05:37:48.209Z,23.70
2017-08-22T05:40:16.344Z,23.80
2017-08-22T05:42:44.491Z,23.80
2017-08-22T05:45:12.632Z,23.80
2017-08-22T05:47:40.759Z,23.80
2017-08-22T05:50:08.916Z,23.80
2017-08-22T05:52:37.027Z,23.90
2017-08-22T05:55:05.178Z,23.90
2017-08-22T05:57:33.300Z,23.90
2017-08-22T06:00:01.440Z,23.90
2017-08-22T06:02:29.589Z,23.90
2017-08-22T06:04:57.727Z,24.00
2017-08-22T06:07:25.856Z,24.00
2017-08-22T06:09:54.004Z,24.00
2017-08-22T06:12:22.140Z,24.10
2017-08-22T06:14:50.265Z,24.10
2017-08-22T06:17:18.413Z,24.10
2017-08-22T06:19:46.616Z,24.10
2017-08-22T06:22:14.753Z,24.10
2017-08-22T06:24:42.885Z,24.20
2017-08-22T06:27:11.016Z,24.20
2017-08-22T06:29:39.148Z,24.30
2017-08-22T06:32:07.388Z,24.30
2017-08-22T06:34:35.603Z,24.30
2017-08-22T06:37:03.776Z,24.40
2017-08-22T06:39:31.933Z,24.40
2017-08-22T06:42:00.073Z,24.50
2017-08-22T06:44:28.292Z,24.60
2017-08-22T06:46:56.443Z,24.60
2017-08-22T06:49:24.644Z,24.60
2017-08-22T06:51:52.787Z,24.60
2017-08-22T06:54:20.919Z,24.70
2017-08-22T06:56:49.041Z,24.70
2017-08-22T06:59:17.772Z,24.80
2017-08-22T07:01:45.956Z,24.70
2017-08-22T07:04:14.108Z,24.70
2017-08-22T07:06:42.257Z,24.70
2017-08-22T07:09:10.400Z,24.80
2017-08-22T07:11:38.773Z,24.90
2017-08-22T07:14:06.908Z,24.90
2017-08-22T07:16:35.044Z,24.90
2017-08-22T07:19:03.181Z,25.00
2017-08-22T07:21:31.300Z,25.00
2017-08-22T07:23:59.653Z,25.10
2017-08-22T07:26:27.780Z,25.10
2017-08-22T07:28:55.933Z,25.20
2017-08-22T07:31:24.120Z,25.30
2017-08-22T07:33:52.260Z,25.30
2017-08-22T07:36:55.660Z,25.40
2017-08-22T07:39:23.816Z,25.40
2017-08-22T07:41:51.948Z,25.50
2017-08-22T07:44:20.176Z,25.60
2017-08-22T07:46:48.369Z,25.60
2017-08-22T07:49:16.500Z,25.70
2017-08-22T07:51:44.651Z,25.70
2017-08-22T07:54:12.923Z,25.80
2017-08-22T07:56:41.035Z,25.90
2017-08-22T07:59:09.176Z,25.90
2017-08-22T08:01:37.336Z,25.90
2017-08-22T08:04:05.473Z,25.90
2017-08-22T08:06:33.610Z,25.90
2017-08-22T08:09:02.248Z,25.80
2017-08-22T08:11:30.404Z,25.80
2017-08-22T08:13:58.520Z,25.80
2017-08-22T08:16:26.665Z,25.80
2017-08-22T08:18:54.796Z,25.90
2017-08-22T08:21:23.005Z,25.90
2017-08-22T08:23:51.216Z,25.90
2017-08-22T08:26:19.440Z,26.00
2017-08-22T08:31:25.167Z,26.10
2017-08-22T08:33:53.312Z,26.10
2017-08-22T08:36:21.851Z,26.10
2017-08-22T08:38:49.980Z,26.20
2017-08-22T08:41:18.161Z,26.20
2017-08-22T08:43:46.279Z,26.30
2017-08-22T08:46:14.427Z,26.30
2017-08-22T08:48:42.570Z,26.30
2017-08-22T08:51:10.718Z,26.40
2017-08-22T08:53:38.856Z,26.40
2017-08-22T08:56:06.994Z,26.40
2017-08-22T08:58:35.151Z,26.40
2017-08-22T09:01:03.309Z,26.40
2017-08-22T09:03:31.455Z,26.40
2017-08-22T09:05:59.563Z,26.40
2017-08-22T09:08:27.701Z,26.40
2017-08-22T09:10:55.860Z,26.40
2017-08-22T09:13:24.012Z,26.40
2017-08-22T09:15:52.152Z,26.40
2017-08-22T09:18:20.307Z,26.50
2017-08-22T09:20:48.453Z,26.50
2017-08-22T09:23:16.577Z,26.50
2017-08-22T09:25:45.312Z,26.60
2017-08-22T09:28:13.469Z,26.60
2017-08-22T09:30:41.637Z,26.60
2017-08-22T09:33:09.814Z,26.60
2017-08-22T09:35:37.953Z,26.60
2017-08-22T09:38:06.088Z,26.70
2017-08-22T09:40:34.221Z,26.80
2017-08-22T09:43:02.353Z,27.00
2017-08-22T09:45:30.506Z,27.10
2017-08-22T09:47:58.656Z,27.30
2017-08-22T09:50:26.805Z,27.50
2017-08-22T09:52:54.956Z,27.60
2017-08-22T09:55:23.092Z,27.80
2017-08-22T09:57:51.258Z,28.00
2017-08-22T10:00:19.400Z,28.10
2017-08-22T10:02:47.584Z,28.20
2017-08-22T10:05:15.788Z,28.30
2017-08-22T10:07:43.953Z,28.50
2017-08-22T10:10:12.092Z,28.60
2017-08-22T10:12:40.361Z,28.70
2017-08-22T10:15:08.492Z,28.80
2017-08-22T10:17:36.696Z,29.00
2017-08-22T10:20:04.840Z,29.10
2017-08-22T10:22:32.988Z,29.20
2017-08-22T10:25:01.160Z,29.30
2017-08-22T10:27:29.338Z,29.30
2017-08-22T10:29:57.468Z,29.40
2017-08-22T10:32:25.657Z,29.50
2017-08-22T10:34:53.825Z,29.60
2017-08-22T10:37:22.010Z,29.60
2017-08-22T10:39:50.132Z,29.70
2017-08-22T10:42:18.279Z,29.80
2017-08-22T10:44:46.422Z,29.90
2017-08-22T10:47:14.620Z,30.00
2017-08-22T10:49:42.749Z,30.10
2017-08-22T10:52:10.896Z,30.20
2017-08-22T10:54:39.044Z,30.30
2017-08-22T10:57:07.196Z,30.30
2017-08-22T10:59:35.340Z,30.40
2017-08-22T11:02:04.033Z,30.40
2017-08-22T11:04:32.168Z,30.50
2017-08-22T11:07:00.401Z,30.60
2017-08-22T11:09:28.554Z,30.70
2017-08-22T11:11:56.720Z,30.80
2017-08-22T11:14:24.884Z,30.90
2017-08-22T11:16:53.020Z,31.00
2017-08-22T11:19:21.149Z,31.10
2017-08-22T11:21:49.269Z,31.10
2017-08-22T11:24:18.059Z,31.30
2017-08-22T11:26:46.187Z,31.30
2017-08-22T11:29:14.757Z,31.40
2017-08-22T11:31:42.900Z,31.40
2017-08-22T11:34:11.034Z,31.40
2017-08-22T11:36:39.392Z,31.40
2017-08-22T11:39:07.610Z,31.40
2017-08-22T11:41:36.765Z,31.40
2017-08-22T11:44:04.894Z,31.30
2017-08-22T11:46:33.022Z,31.30
2017-08-22T11:49:01.172Z,31.30
2017-08-22T11:51:29.298Z,31.30
2017-08-22T11:53:57.761Z,31.30
2017-08-22T11:56:26.681Z,31.40
2017-08-22T11:58:54.837Z,31.40
2017-08-22T12:01:22.957Z,31.40
2017-08-22T12:03:51.104Z,31.50
2017-08-22T12:06:20.083Z,31.60
2017-08-22T12:08:48.288Z,31.50
2017-08-22T12:11:16.433Z,31.60
2017-08-22T12:13:44.583Z,31.70
2017-08-22T12:16:12.802Z,31.80
2017-08-22T12:18:40.932Z,31.90
2017-08-22T12:21:09.080Z,32.00
2017-08-22T12:23:37.347Z,32.10
2017-08-22T12:26:05.510Z,32.20
2017-08-22T12:28:33.692Z,32.30
2017-08-22T12:31:01.829Z,32.30
2017-08-22T12:33:29.977Z,32.40
2017-08-22T12:35:58.130Z,32.50
2017-08-22T12:38:26.299Z,32.60
2017-08-22T12:40:54.441Z,32.60
2017-08-22T12:43:22.657Z,32.70
2017-08-22T12:45:50.872Z,32.70
2017-08-22T12:48:19.012Z,32.80
2017-08-22T12:50:47.328Z,32.80
2017-08-22T12:53:15.458Z,32.80
2017-08-22T12:55:43.589Z,32.90
2017-08-22T12:58:11.767Z,32.90
2017-08-22T13:00:39.901Z,32.90
2017-08-22T13:03:08.222Z,33.00
2017-08-22T13:05:36.828Z,33.00
2017-08-22T13:08:05.089Z,33.00
2017-08-22T13:10:33.243Z,33.00
2017-08-22T13:13:01.428Z,33.00
2017-08-22T13:15:29.544Z,33.00
2017-08-22T13:17:57.688Z,33.00
2017-08-22T13:20:25.821Z,33.10
2017-08-22T13:22:54.045Z,33.00
2017-08-22T13:25:22.408Z,33.10
2017-08-22T13:27:50.553Z,33.10
2017-08-22T13:30:18.712Z,33.10
2017-08-22T13:32:46.859Z,33.10
2017-08-22T13:35:15.017Z,33.10
2017-08-22T13:37:43.152Z,33.10
2017-08-22T13:40:11.306Z,33.20
2017-08-22T13:42:39.480Z,33.20
2017-08-22T13:45:07.659Z,33.20
2017-08-22T13:47:35.793Z,33.20
2017-08-22T13:50:03.948Z,33.30
2017-08-22T13:52:32.152Z,33.20
2017-08-22T13:55:00.302Z,33.20
2017-08-22T13:57:28.449Z,33.30
2017-08-22T13:59:56.595Z,33.20
2017-08-22T14:02:24.719Z,33.20
2017-08-22T14:04:52.881Z,33.20
2017-08-22T14:07:21.036Z,33.20
2017-08-22T14:09:49.344Z,33.20
2017-08-22T14:12:17.476Z,33.20
2017-08-22T14:14:45.644Z,33.20
2017-08-22T14:17:13.772Z,33.20
2017-08-22T14:19:41.907Z,33.20
2017-08-22T14:22:10.061Z,33.20
2017-08-22T14:24:38.184Z,33.20
2017-08-22T14:27:06.332Z,33.30
2017-08-22T14:29:34.504Z,33.20
2017-08-22T14:32:02.637Z,33.20
2017-08-22T14:34:30.799Z,33.20
2017-08-22T14:36:58.901Z,33.20
2017-08-22T14:39:27.032Z,33.20
2017-08-22T14:41:55.281Z,33.30
2017-08-22T14:44:23.420Z,33.40
2017-08-22T14:46:51.571Z,33.40
2017-08-22T14:49:24.842Z,33.20
2017-08-22T14:51:54.170Z,33.20
2017-08-22T14:54:22.308Z,33.20
2017-08-22T14:56:50.987Z,33.20
2017-08-22T14:59:19.715Z,33.10
2017-08-22T15:01:47.876Z,33.10
2017-08-22T15:04:16.032Z,33.10
2017-08-22T15:06:44.168Z,33.00
2017-08-22T15:09:12.685Z,33.00
2017-08-22T15:11:40.832Z,32.90
2017-08-22T15:14:08.972Z,32.90
2017-08-22T15:16:37.107Z,32.80
2017-08-22T15:19:05.716Z,32.80
2017-08-22T15:21:33.852Z,32.80
2017-08-22T15:24:02.001Z,32.70
2017-08-22T15:26:30.116Z,32.70
2017-08-22T15:28:58.269Z,32.60
2017-08-22T15:31:26.420Z,32.60
2017-08-22T15:33:54.552Z,32.50
2017-08-22T15:36:23.172Z,32.40
2017-08-22T15:38:51.355Z,32.40
2017-08-22T15:41:19.534Z,32.30
2017-08-22T15:43:47.656Z,32.20
2017-08-22T15:46:15.811Z,32.20
2017-08-22T15:48:43.971Z,32.10
2017-08-22T15:51:12.088Z,32.00
2017-08-22T15:53:40.301Z,32.00
2017-08-22T15:56:08.477Z,32.00
2017-08-22T15:58:36.646Z,31.90
2017-08-22T16:01:04.772Z,31.80
2017-08-22T16:03:32.909Z,31.80
2017-08-22T16:06:01.248Z,31.70
2017-08-22T16:08:29.372Z,31.60
2017-08-22T16:10:57.524Z,31.60
2017-08-22T16:13:25.699Z,31.50
2017-08-22T16:15:53.836Z,31.50
2017-08-22T16:18:22.076Z,31.40
2017-08-22T16:20:50.180Z,31.30
2017-08-22T16:23:18.348Z,31.30
2017-08-22T16:25:46.506Z,31.20
2017-08-22T16:28:14.669Z,31.20
2017-08-22T16:30:42.818Z,31.10
2017-08-22T16:33:11.746Z,31.00
2017-08-22T16:35:39.872Z,31.10
2017-08-22T16:38:08.039Z,31.00
2017-08-22T16:40:36.276Z,30.90
2017-08-22T16:43:04.423Z,30.90
2017-08-22T16:45:32.553Z,30.90
2017-08-22T16:48:00.664Z,30.80
2017-08-22T16:50:28.787Z,30.60
2017-08-22T16:52:56.928Z,30.50
2017-08-22T16:55:25.061Z,30.40
2017-08-22T16:57:53.232Z,30.40
2017-08-22T17:00:21.348Z,30.30
2017-08-22T17:02:49.467Z,30.20
2017-08-22T17:05:17.612Z,30.20
2017-08-22T17:07:45.724Z,30.10
2017-08-22T17:10:13.872Z,30.10
2017-08-22T17:12:42.021Z,30.00
2017-08-22T17:15:10.176Z,29.90
2017-08-22T17:17:38.316Z,29.90
2017-08-22T17:20:06.460Z,29.90
2017-08-22T17:22:34.642Z,29.80
2017-08-22T17:25:02.780Z,29.80
2017-08-22T17:27:30.912Z,29.80
2017-08-22T17:29:59.049Z,29.70
2017-08-22T17:32:27.181Z,29.70
2017-08-22T17:34:55.324Z,29.70
2017-08-22T17:37:23.449Z,29.60
2017-08-22T17:39:51.593Z,29.50
2017-08-22T17:42:19.739Z,29.50
2017-08-22T17:44:47.868Z,29.40
2017-08-22T17:47:16.003Z,29.40
2017-08-22T17:49:44.140Z,29.30
2017-08-22T17:52:12.300Z,29.30
2017-08-22T17:54:40.468Z,29.20
2017-08-22T17:57:08.598Z,29.10
2017-08-22T17:59:36.809Z,29.00
2017-08-22T18:02:04.950Z,29.00
2017-08-22T18:04:33.163Z,28.90
2017-08-22T18:07:01.284Z,28.80
2017-08-22T18:09:29.428Z,28.70
2017-08-22T18:11:57.568Z,28.60
2017-08-22T18:14:25.700Z,28.60
2017-08-22T18:16:53.836Z,28.50
2017-08-22T18:19:22.051Z,28.40
2017-08-22T18:21:50.191Z,28.30
2017-08-22T18:24:18.331Z,28.30
2017-08-22T18:26:46.836Z,28.20
2017-08-22T18:29:14.964Z,28.20
2017-08-22T18:31:43.113Z,28.10
2017-08-22T18:34:11.256Z,28.00
2017-08-22T18:36:39.388Z,28.00
2017-08-22T18:39:07.548Z,27.90
2017-08-22T18:41:35.671Z,27.90
2017-08-22T18:44:03.800Z,27.90
2017-08-22T18:46:31.944Z,27.80
2017-08-22T18:49:00.620Z,27.80
2017-08-22T18:51:28.744Z,27.70
2017-08-22T18:53:56.876Z,27.60
2017-08-22T18:56:25.020Z,27.50
2017-08-22T18:58:53.205Z,27.50
2017-08-22T19:01:21.328Z,27.40
2017-08-22T19:03:49.464Z,27.30
2017-08-22T19:06:17.602Z,27.30
2017-08-22T19:08:46.025Z,27.30
2017-08-22T19:11:14.174Z,27.30
2017-08-22T19:13:42.284Z,27.30
2017-08-22T19:16:10.460Z,27.20
2017-08-22T19:18:38.620Z,27.20
2017-08-22T19:21:06.752Z,27.20
2017-08-22T19:23:34.877Z,27.20
2017-08-22T19:26:03.032Z,27.20
2017-08-22T19:28:31.285Z,27.10
2017-08-22T19:31:00.044Z,27.10
2017-08-22T19:33:28.269Z,27.10
2017-08-22T19:35:56.396Z,27.10
2017-08-22T19:38:24.536Z,27.00
2017-08-22T19:40:52.676Z,27.00
2017-08-22T19:43:20.793Z,27.00
2017-08-22T19:45:48.896Z,26.90
2017-08-22T19:48:17.045Z,26.90
2017-08-22T19:50:45.956Z,26.80
2017-08-22T19:53:14.105Z,26.80
2017-08-22T19:55:42.240Z,26.80
2017-08-22T19:58:10.380Z,26.70
2017-08-22T20:00:38.516Z,26.70
2017-08-22T20:03:06.648Z,26.70
2017-08-22T20:05:34.772Z,26.60
2017-08-22T20:08:03.004Z,26.70
2017-08-22T20:10:31.140Z,26.60
2017-08-22T20:12:59.263Z,26.60
2017-08-22T20:15:27.400Z,26.50
2017-08-22T20:17:55.536Z,26.40
2017-08-22T20:20:23.664Z,26.40
2017-08-22T20:22:51.809Z,26.30
2017-08-22T20:25:20.760Z,26.30
2017-08-22T20:27:48.899Z,26.30
2017-08-22T20:30:17.009Z,26.30
2017-08-22T20:32:45.133Z,26.30
2017-08-22T20:35:13.313Z,26.30
2017-08-22T20:37:41.448Z,26.30
2017-08-22T20:40:09.601Z,26.30
2017-08-22T20:42:37.724Z,26.30
2017-08-22T20:45:05.840Z,26.30
2017-08-22T20:47:33.965Z,26.30
2017-08-22T20:50:02.128Z,26.30
2017-08-22T20:52:30.284Z,26.30
2017-08-22T20:54:58.420Z,26.30
2017-08-22T20:57:26.552Z,26.30
2017-08-22T20:59:54.676Z,26.30
2017-08-22T21:02:23.133Z,26.20
2017-08-22T21:04:51.248Z,26.20
2017-08-22T21:07:19.372Z,26.20
2017-08-22T21:09:47.507Z,26.20
2017-08-22T21:12:15.642Z,26.10
2017-08-22T21:14:43.776Z,26.10
2017-08-22T21:17:11.896Z,26.10
2017-08-22T21:19:40.024Z,26.10
2017-08-22T21:22:08.164Z,26.10
2017-08-22T21:24:36.318Z,26.00
2017-08-22T21:27:04.446Z,26.10
2017-08-22T21:29:32.579Z,26.00
2017-08-22T21:32:00.724Z,26.00
2017-08-22T21:34:28.844Z,26.00
2017-08-22T21:36:56.963Z,26.00
2017-08-22T21:39:25.104Z,25.90
2017-08-22T21:41:53.379Z,25.90
2017-08-22T21:44:21.512Z,25.90
2017-08-22T21:46:49.640Z,25.80
2017-08-22T21:49:17.830Z,25.80
2017-08-22T21:51:45.960Z,25.70
2017-08-22T21:54:14.080Z,25.70
2017-08-22T21:56:42.300Z,25.70
2017-08-22T21:59:10.422Z,25.70
2017-08-22T22:01:38.550Z,25.80
2017-08-22T22:04:06.683Z,25.80
2017-08-22T22:06:34.811Z,25.80
2017-08-22T22:09:02.956Z,25.80
2017-08-22T22:11:31.214Z,25.80
2017-08-22T22:13:59.340Z,25.70
2017-08-22T22:16:27.471Z,25.80
2017-08-22T22:18:55.688Z,25.70
2017-08-22T22:21:23.819Z,25.70
2017-08-22T22:23:51.960Z,25.70
2017-08-22T22:26:20.104Z,25.70
2017-08-22T22:28:48.228Z,25.70
2017-08-22T22:31:16.359Z,25.70
2017-08-22T22:33:44.493Z,25.60
2017-08-22T22:36:12.631Z,25.60
2017-08-22T22:38:40.772Z,25.60
2017-08-22T22:41:08.904Z,25.60
2017-08-22T22:43:37.043Z,25.60
2017-08-22T22:46:05.168Z,25.60
2017-08-22T22:48:33.304Z,25.50
2017-08-22T22:51:02.005Z,25.60
2017-08-22T22:53:30.116Z,25.60
2017-08-22T22:55:58.329Z,25.50
2017-08-22T22:58:26.556Z,25.60
2017-08-22T23:00:54.724Z,25.50
2017-08-22T23:03:22.873Z,25.50
2017-08-22T23:05:51.024Z,25.50
2017-08-22T23:08:19.140Z,25.40
2017-08-22T23:10:47.292Z,25.40
2017-08-22T23:13:15.420Z,25.30
2017-08-22T23:15:43.564Z,25.30
2017-08-22T23:18:11.701Z,25.20
2017-08-22T23:20:39.843Z,25.20
2017-08-22T23:23:07.967Z,25.20
2017-08-22T23:25:36.113Z,25.20
2017-08-22T23:28:04.225Z,25.20
2017-08-22T23:30:32.365Z,25.20
2017-08-22T23:33:00.524Z,25.20
2017-08-22T23:35:28.652Z,25.20
2017-08-22T23:37:56.789Z,25.20
2017-08-22T23:40:24.932Z,25.20
2017-08-22T23:42:57.319Z,25.20
2017-08-22T23:45:25.669Z,25.30
2017-08-22T23:47:53.796Z,25.30
2017-08-22T23:50:21.944Z,25.30
2017-08-22T23:52:50.076Z,25.30
2017-08-22T23:55:18.216Z,25.20
2017-08-22T23:57:46.352Z,25.20
